createdAt,value
2018-07-21T00:01:17.914Z,24.45
2018-07-21T00:03:46.613Z,24.49
2018-07-21T00:06:15.555Z,24.48
2018-07-21T00:08:44.253Z,24.47
2018-07-21T00:11:13.076Z,24.44
2018-07-21T00:13:43.054Z,24.37
2018-07-21T00:16:11.724Z,24.41
2018-07-21T00:18:40.387Z,24.25
2018-07-21T00:21:09.323Z,24.26
2018-07-21T00:23:38.018Z,24.41
2018-07-21T00:26:06.786Z,24.36
2018-07-21T00:28:35.395Z,24.45
2018-07-21T00:31:04.055Z,24.57
2018-07-21T00:33:32.792Z,24.67
2018-07-21T00:36:01.406Z,24.57
2018-07-21T00:38:44.358Z,24.49
2018-07-21T00:41:13.039Z,24.49
2018-07-21T00:43:41.654Z,24.42
2018-07-21T00:46:10.220Z,24.43
2018-07-21T00:48:39.001Z,24.37
2018-07-21T00:51:07.739Z,24.33
2018-07-21T00:53:36.418Z,24.31
2018-07-21T00:56:05.118Z,24.23
2018-07-21T00:58:33.953Z,24.20
2018-07-21T01:01:02.591Z,24.10
2018-07-21T01:03:31.259Z,23.93
2018-07-21T01:05:59.865Z,24.07
2018-07-21T01:08:28.552Z,23.93
2018-07-21T01:10:57.334Z,23.94
2018-07-21T01:13:25.907Z,23.78
2018-07-21T01:15:54.516Z,23.71
2018-07-21T01:18:23.192Z,23.64
2018-07-21T01:20:51.912Z,23.67
2018-07-21T01:23:20.627Z,23.59
2018-07-21T01:25:49.352Z,23.63
2018-07-21T01:28:18.015Z,23.59
2018-07-21T01:30:46.611Z,23.54
2018-07-21T01:33:15.222Z,23.56
2018-07-21T01:35:43.866Z,23.55
2018-07-21T01:38:12.498Z,23.61
2018-07-21T01:40:41.288Z,23.62
2018-07-21T01:43:09.946Z,23.51
2018-07-21T01:45:38.665Z,23.61
2018-07-21T01:48:07.574Z,23.58
2018-07-21T01:50:36.285Z,23.69
2018-07-21T01:53:04.878Z,23.75
2018-07-21T01:55:33.930Z,23.73
2018-07-21T01:58:02.700Z,23.75
2018-07-21T02:00:31.656Z,23.86
2018-07-21T02:03:00.306Z,23.86
2018-07-21T02:05:28.993Z,23.88
2018-07-21T02:07:57.698Z,23.82
2018-07-21T02:10:26.345Z,23.97
2018-07-21T02:12:54.982Z,23.94
2018-07-21T02:15:23.619Z,24.05
2018-07-21T02:17:53.110Z,23.99
2018-07-21T02:20:22.824Z,23.94
2018-07-21T02:22:51.546Z,24.02
2018-07-21T02:25:20.189Z,24.01
2018-07-21T02:27:48.984Z,23.91
2018-07-21T02:30:17.561Z,23.96
2018-07-21T02:32:46.234Z,24.00
2018-07-21T02:35:14.957Z,23.97
2018-07-21T02:37:43.667Z,23.90
2018-07-21T02:40:12.299Z,23.89
2018-07-21T02:42:41.047Z,23.95
2018-07-21T02:45:09.751Z,23.97
2018-07-21T02:47:38.434Z,24.01
2018-07-21T02:50:07.201Z,23.94
2018-07-21T02:52:35.872Z,24.00
2018-07-21T02:55:04.581Z,23.93
2018-07-21T02:57:33.151Z,23.87
2018-07-21T03:00:01.866Z,23.86
2018-07-21T03:02:30.543Z,23.85
2018-07-21T03:04:59.314Z,23.85
2018-07-21T03:07:28.019Z,23.89
2018-07-21T03:09:56.626Z,23.95
2018-07-21T03:12:26.427Z,23.92
2018-07-21T03:14:55.074Z,23.87
2018-07-21T03:17:23.832Z,23.94
2018-07-21T03:19:52.517Z,23.90
2018-07-21T03:22:21.120Z,23.90
2018-07-21T03:24:49.802Z,23.91
2018-07-21T03:27:18.661Z,23.89
2018-07-21T03:29:47.396Z,23.94
2018-07-21T03:32:16.151Z,24.06
2018-07-21T03:34:44.818Z,24.02
2018-07-21T03:37:13.632Z,24.02
2018-07-21T03:39:42.255Z,24.02
2018-07-21T03:42:11.017Z,23.99
2018-07-21T03:44:39.724Z,24.07
2018-07-21T03:47:08.707Z,24.09
2018-07-21T03:49:37.395Z,24.16
2018-07-21T03:52:06.177Z,24.18
2018-07-21T03:54:34.936Z,24.22
2018-07-21T03:57:03.574Z,24.11
2018-07-21T03:59:32.425Z,24.16
2018-07-21T04:02:00.948Z,24.21
2018-07-21T04:04:29.552Z,24.20
2018-07-21T04:06:58.145Z,24.32
2018-07-21T04:09:26.777Z,24.26
2018-07-21T04:11:55.552Z,24.26
2018-07-21T04:14:24.324Z,24.30
2018-07-21T04:16:53.036Z,24.42
2018-07-21T04:19:21.742Z,24.52
2018-07-21T04:21:50.465Z,24.71
2018-07-21T04:24:19.155Z,24.86
2018-07-21T04:26:47.574Z,24.82
2018-07-21T04:29:16.280Z,24.81
2018-07-21T04:31:44.897Z,24.84
2018-07-21T04:34:13.449Z,24.89
2018-07-21T04:36:42.224Z,24.93
2018-07-21T04:39:11.960Z,24.89
2018-07-21T04:41:41.248Z,24.92
2018-07-21T04:44:09.978Z,25.01
2018-07-21T04:46:38.624Z,25.10
2018-07-21T04:49:07.362Z,25.04
2018-07-21T04:51:36.127Z,25.19
2018-07-21T04:54:04.820Z,25.33
2018-07-21T04:56:33.421Z,25.25
2018-07-21T04:59:02.191Z,25.13
2018-07-21T05:01:30.839Z,25.23
2018-07-21T05:03:59.491Z,25.31
2018-07-21T05:06:28.108Z,25.26
2018-07-21T05:09:01.229Z,25.00
2018-07-21T05:11:29.801Z,24.96
2018-07-21T05:13:58.474Z,24.93
2018-07-21T05:16:27.019Z,24.87
2018-07-21T05:18:55.567Z,24.88
2018-07-21T05:21:25.710Z,24.78
2018-07-21T05:23:54.414Z,24.63
2018-07-21T05:26:23.294Z,24.53
2018-07-21T05:28:51.965Z,24.55
2018-07-21T05:31:20.579Z,24.58
2018-07-21T05:33:49.282Z,24.66
2018-07-21T05:36:18.858Z,24.61
2018-07-21T05:38:47.686Z,24.66
2018-07-21T05:41:16.311Z,24.71
2018-07-21T05:43:45.109Z,24.65
2018-07-21T05:46:13.784Z,24.69
2018-07-21T05:48:42.538Z,24.66
2018-07-21T05:51:11.139Z,24.55
2018-07-21T05:53:39.761Z,24.60
2018-07-21T05:56:08.470Z,24.61
2018-07-21T05:58:37.202Z,24.47
2018-07-21T06:01:05.814Z,24.52
2018-07-21T06:03:34.474Z,24.52
2018-07-21T06:06:03.341Z,24.42
2018-07-21T06:08:31.962Z,24.42
2018-07-21T06:11:00.694Z,24.47
2018-07-21T06:13:29.385Z,24.51
2018-07-21T06:15:58.364Z,24.38
2018-07-21T06:18:27.062Z,24.44
2018-07-21T06:20:55.733Z,24.38
2018-07-21T06:23:24.469Z,24.25
2018-07-21T06:25:53.110Z,24.32
2018-07-21T06:28:27.612Z,24.23
2018-07-21T06:30:56.281Z,24.41
2018-07-21T06:33:25.345Z,24.52
2018-07-21T06:35:54.613Z,24.61
2018-07-21T06:38:23.909Z,24.66
2018-07-21T06:40:52.551Z,24.79
2018-07-21T06:43:21.282Z,24.83
2018-07-21T06:45:50.132Z,24.86
2018-07-21T06:48:19.008Z,24.86
2018-07-21T06:50:47.804Z,24.86
2018-07-21T06:53:16.752Z,25.02
2018-07-21T06:55:45.539Z,25.01
2018-07-21T06:58:14.172Z,25.18
2018-07-21T07:00:42.870Z,25.33
2018-07-21T07:03:11.445Z,25.54
2018-07-21T07:05:40.177Z,25.70
2018-07-21T07:08:09.052Z,25.87
2018-07-21T07:10:37.919Z,26.00
2018-07-21T07:13:06.811Z,26.14
2018-07-21T07:15:35.529Z,26.28
2018-07-21T07:18:04.455Z,26.35
2018-07-21T07:20:33.264Z,26.58
2018-07-21T07:23:01.942Z,26.76
2018-07-21T07:25:30.788Z,26.75
2018-07-21T07:27:59.690Z,26.91
2018-07-21T07:30:28.346Z,27.01
2018-07-21T07:32:57.097Z,27.05
2018-07-21T07:35:25.675Z,27.14
2018-07-21T07:37:54.305Z,27.13
2018-07-21T07:40:23.064Z,27.25
2018-07-21T07:42:51.907Z,27.27
2018-07-21T07:45:20.872Z,27.54
2018-07-21T07:47:49.602Z,27.66
2018-07-21T07:50:18.572Z,27.75
2018-07-21T07:52:47.249Z,27.87
2018-07-21T07:55:16.046Z,27.99
2018-07-21T07:57:44.825Z,28.05
2018-07-21T08:00:13.344Z,28.03
2018-07-21T08:02:41.970Z,28.01
2018-07-21T08:05:10.662Z,27.95
2018-07-21T08:07:42.195Z,28.00
2018-07-21T08:10:10.910Z,28.05
2018-07-21T08:12:39.649Z,28.06
2018-07-21T08:15:08.400Z,27.95
2018-07-21T08:17:37.039Z,28.11
2018-07-21T08:20:05.831Z,28.23
2018-07-21T08:22:34.608Z,28.24
2018-07-21T08:25:03.448Z,28.25
2018-07-21T08:27:32.145Z,28.30
2018-07-21T08:30:01.023Z,28.38
2018-07-21T08:32:29.642Z,28.41
2018-07-21T08:34:58.477Z,28.40
2018-07-21T08:37:28.142Z,28.31
2018-07-21T08:39:56.904Z,28.33
2018-07-21T08:42:25.844Z,28.43
2018-07-21T08:44:54.638Z,28.27
2018-07-21T08:47:23.367Z,28.09
2018-07-21T08:49:52.236Z,28.08
2018-07-21T08:52:21.082Z,28.19
2018-07-21T08:54:49.812Z,28.16
2018-07-21T08:57:18.670Z,27.96
2018-07-21T08:59:47.520Z,27.98
2018-07-21T09:02:16.200Z,27.92
2018-07-21T09:04:44.945Z,27.92
2018-07-21T09:07:13.612Z,27.95
2018-07-21T09:09:43.418Z,27.87
2018-07-21T09:12:12.333Z,27.57
2018-07-21T09:14:41.374Z,27.56
2018-07-21T09:17:10.220Z,27.67
2018-07-21T09:19:38.912Z,27.58
2018-07-21T09:22:07.507Z,27.51
2018-07-21T09:24:36.205Z,27.37
2018-07-21T09:27:04.868Z,27.32
2018-07-21T09:29:33.571Z,27.30
2018-07-21T09:32:02.599Z,27.10
2018-07-21T09:34:31.420Z,27.03
2018-07-21T09:37:00.315Z,26.86
2018-07-21T09:39:29.029Z,26.88
2018-07-21T09:41:57.896Z,26.76
2018-07-21T09:44:26.740Z,26.64
2018-07-21T09:46:55.517Z,26.53
2018-07-21T09:49:24.271Z,26.13
2018-07-21T09:51:53.023Z,26.05
2018-07-21T09:54:21.736Z,25.92
2018-07-21T09:56:50.469Z,25.81
2018-07-21T09:59:19.333Z,25.57
2018-07-21T10:01:48.123Z,25.51
2018-07-21T10:04:16.847Z,25.31
2018-07-21T10:06:45.696Z,24.25
2018-07-21T10:09:14.576Z,24.41
2018-07-21T10:11:43.196Z,24.50
2018-07-21T10:14:11.983Z,24.04
2018-07-21T10:16:40.871Z,23.52
2018-07-21T10:19:11.761Z,21.80
2018-07-21T10:21:40.449Z,21.57
2018-07-21T10:24:14.282Z,22.00
2018-07-21T10:26:48.100Z,22.00
2018-07-21T10:31:52.725Z,22.32
2018-07-21T10:34:21.461Z,22.10
2018-07-21T10:36:50.181Z,22.64
2018-07-21T10:39:18.785Z,23.11
2018-07-21T10:41:47.699Z,22.60
2018-07-21T10:44:16.450Z,22.72
2018-07-21T10:46:45.165Z,22.91
2018-07-21T10:49:13.760Z,23.10
2018-07-21T10:51:42.387Z,23.21
2018-07-21T10:54:11.086Z,23.52
2018-07-21T10:56:39.822Z,23.56
2018-07-21T10:59:08.551Z,23.99
2018-07-21T11:01:37.209Z,23.84
2018-07-21T11:04:05.888Z,23.67
2018-07-21T11:06:34.526Z,23.72
2018-07-21T11:09:03.340Z,23.72
2018-07-21T11:11:32.078Z,23.32
2018-07-21T11:14:00.877Z,23.75
2018-07-21T11:16:29.601Z,23.86
2018-07-21T11:18:58.302Z,24.20
2018-07-21T11:21:26.976Z,24.07
2018-07-21T11:23:55.672Z,24.04
2018-07-21T11:26:24.311Z,23.73
2018-07-21T11:28:53.022Z,23.64
2018-07-21T11:31:21.748Z,23.61
2018-07-21T11:33:51.249Z,23.10
2018-07-21T11:36:19.864Z,23.91
2018-07-21T11:38:48.622Z,24.31
2018-07-21T11:41:17.462Z,24.12
2018-07-21T11:43:46.249Z,24.47
2018-07-21T11:46:15.000Z,24.23
2018-07-21T11:48:43.711Z,25.06
2018-07-21T11:51:12.402Z,24.54
2018-07-21T11:53:41.048Z,24.75
2018-07-21T11:56:09.843Z,24.91
2018-07-21T11:58:38.515Z,24.57
2018-07-21T12:01:08.038Z,24.81
2018-07-21T12:03:36.771Z,25.06
2018-07-21T12:06:05.503Z,24.77
2018-07-21T12:08:34.251Z,24.89
2018-07-21T12:11:02.932Z,25.70
2018-07-21T12:13:31.661Z,25.80
2018-07-21T12:16:00.255Z,26.12
2018-07-21T12:18:28.911Z,26.32
2018-07-21T12:20:57.695Z,26.09
2018-07-21T12:23:26.391Z,25.92
2018-07-21T12:25:55.074Z,25.90
2018-07-21T12:28:23.770Z,26.30
2018-07-21T12:30:52.392Z,26.29
2018-07-21T12:33:21.024Z,26.88
2018-07-21T12:35:49.659Z,27.21
2018-07-21T12:38:18.275Z,27.76
2018-07-21T12:40:46.985Z,27.75
2018-07-21T12:43:15.679Z,27.82
2018-07-21T12:45:44.414Z,27.72
2018-07-21T12:48:13.178Z,27.11
2018-07-21T12:50:41.905Z,26.94
2018-07-21T12:53:10.587Z,26.78
2018-07-21T12:55:39.221Z,27.19
2018-07-21T12:58:08.029Z,26.73
2018-07-21T13:00:36.697Z,27.11
2018-07-21T13:03:05.575Z,27.69
2018-07-21T13:05:34.361Z,27.55
2018-07-21T13:08:03.057Z,27.56
2018-07-21T13:10:31.903Z,27.79
2018-07-21T13:13:00.726Z,27.54
2018-07-21T13:15:29.666Z,28.71
2018-07-21T13:17:58.485Z,29.25
2018-07-21T13:20:27.262Z,30.03
2018-07-21T13:22:55.973Z,31.07
2018-07-21T13:25:25.089Z,31.38
2018-07-21T13:27:54.053Z,32.58
2018-07-21T13:30:22.892Z,33.03
2018-07-21T13:32:51.547Z,33.58
2018-07-21T13:35:20.401Z,33.51
2018-07-21T13:37:53.551Z,32.95
2018-07-21T13:40:24.254Z,32.80
2018-07-21T13:43:01.115Z,32.29
2018-07-21T13:45:29.946Z,31.87
2018-07-21T13:47:58.714Z,31.14
2018-07-21T13:50:27.357Z,30.19
2018-07-21T13:52:55.958Z,30.13
2018-07-21T13:55:24.720Z,29.59
2018-07-21T13:57:53.381Z,30.29
2018-07-21T14:00:22.058Z,29.87
2018-07-21T14:02:50.825Z,30.19
2018-07-21T14:05:19.618Z,31.11
2018-07-21T14:07:48.312Z,31.83
2018-07-21T14:10:17.052Z,32.25
2018-07-21T14:12:45.653Z,32.55
2018-07-21T14:15:14.292Z,32.91
2018-07-21T14:17:42.947Z,31.90
2018-07-21T14:20:11.537Z,32.39
2018-07-21T14:22:40.397Z,31.98
2018-07-21T14:25:09.055Z,32.29
2018-07-21T14:27:38.822Z,32.87
2018-07-21T14:30:08.727Z,33.60
2018-07-21T14:32:37.695Z,33.80
2018-07-21T14:35:06.879Z,33.67
2018-07-21T14:37:35.476Z,33.24
2018-07-21T14:40:04.235Z,33.24
2018-07-21T14:42:33.074Z,33.31
2018-07-21T14:45:02.911Z,34.05
2018-07-21T14:47:31.526Z,35.70
2018-07-21T14:50:00.372Z,36.95
2018-07-21T14:52:28.957Z,38.54
2018-07-21T14:54:57.875Z,38.21
2018-07-21T14:57:26.502Z,37.76
2018-07-21T14:59:55.246Z,37.41
2018-07-21T15:02:23.889Z,36.50
2018-07-21T15:04:52.575Z,36.52
2018-07-21T15:07:21.392Z,36.17
2018-07-21T15:09:50.056Z,35.54
2018-07-21T15:12:18.666Z,35.60
2018-07-21T15:14:47.394Z,36.47
2018-07-21T15:17:16.205Z,38.39
2018-07-21T15:19:45.034Z,38.95
2018-07-21T15:22:13.689Z,40.19
2018-07-21T15:24:42.479Z,41.06
2018-07-21T15:27:11.231Z,40.35
2018-07-21T15:29:40.050Z,38.48
2018-07-21T15:32:08.943Z,38.88
2018-07-21T15:34:37.837Z,37.97
2018-07-21T15:37:07.009Z,35.55
2018-07-21T15:39:35.620Z,35.73
2018-07-21T15:42:04.416Z,33.63
2018-07-21T15:44:33.196Z,32.72
2018-07-21T15:47:01.918Z,32.45
2018-07-21T15:49:30.561Z,31.76
2018-07-21T15:51:59.253Z,31.23
2018-07-21T15:54:27.871Z,30.95
2018-07-21T15:56:56.521Z,30.82
2018-07-21T15:59:25.133Z,30.13
2018-07-21T16:01:53.709Z,30.02
2018-07-21T16:04:22.414Z,29.78
2018-07-21T16:06:51.110Z,28.97
2018-07-21T16:09:19.738Z,29.37
2018-07-21T16:11:48.441Z,29.23
2018-07-21T16:14:17.135Z,28.73
2018-07-21T16:16:45.923Z,28.57
2018-07-21T16:19:14.728Z,29.32
2018-07-21T16:21:43.631Z,28.67
2018-07-21T16:24:12.477Z,29.53
2018-07-21T16:26:41.425Z,29.53
2018-07-21T16:29:10.187Z,28.50
2018-07-21T16:31:38.890Z,27.90
2018-07-21T16:34:07.569Z,27.75
2018-07-21T16:36:36.235Z,27.91
2018-07-21T16:39:08.266Z,27.26
2018-07-21T16:41:36.891Z,27.31
2018-07-21T16:44:05.650Z,27.41
2018-07-21T16:46:34.455Z,27.15
2018-07-21T16:49:03.294Z,26.88
2018-07-21T16:51:32.106Z,26.79
2018-07-21T16:54:00.842Z,26.53
2018-07-21T16:56:29.665Z,26.56
2018-07-21T16:58:58.365Z,26.43
2018-07-21T17:01:27.087Z,26.05
2018-07-21T17:03:55.694Z,25.63
2018-07-21T17:06:25.591Z,25.52
2018-07-21T17:08:54.651Z,25.87
2018-07-21T17:11:23.441Z,25.16
2018-07-21T17:13:52.298Z,24.49
2018-07-21T17:16:21.755Z,24.90
2018-07-21T17:18:50.611Z,24.21
2018-07-21T17:21:19.374Z,24.23
2018-07-21T17:23:48.428Z,24.22
2018-07-21T17:26:18.222Z,24.33
2018-07-21T17:28:46.980Z,24.02
2018-07-21T17:31:15.927Z,23.81
2018-07-21T17:33:44.770Z,23.76
2018-07-21T17:39:08.454Z,23.31
2018-07-21T17:41:37.604Z,23.36
2018-07-21T17:44:06.266Z,23.52
2018-07-21T17:46:35.502Z,23.78
2018-07-21T17:49:04.348Z,23.67
2018-07-21T17:51:52.088Z,24.20
2018-07-21T17:54:21.026Z,24.35
2018-07-21T17:56:50.663Z,24.01
2018-07-21T17:59:20.740Z,23.77
2018-07-21T18:01:50.192Z,23.59
2018-07-21T18:04:21.164Z,23.73
2018-07-21T18:06:49.850Z,23.69
2018-07-21T18:09:19.436Z,23.52
2018-07-21T18:11:48.419Z,24.06
2018-07-21T18:14:17.151Z,24.13
2018-07-21T18:16:45.885Z,24.20
2018-07-21T18:19:14.545Z,24.19
2018-07-21T18:21:43.159Z,24.30
2018-07-21T18:24:11.805Z,23.92
2018-07-21T18:26:40.463Z,23.62
2018-07-21T18:29:09.203Z,23.82
2018-07-21T18:31:38.050Z,23.97
2018-07-21T18:34:12.903Z,23.61
2018-07-21T18:36:45.934Z,23.85
2018-07-21T18:39:39.813Z,23.83
2018-07-21T18:42:08.502Z,23.55
2018-07-21T18:44:37.144Z,23.99
2018-07-21T18:47:05.827Z,23.15
2018-07-21T18:49:36.498Z,23.31
2018-07-21T18:52:12.064Z,22.71
2018-07-21T18:54:41.668Z,23.58
2018-07-21T18:57:10.819Z,23.28
2018-07-21T18:59:39.450Z,23.46
2018-07-21T19:02:08.046Z,23.81
2018-07-21T19:04:38.713Z,23.79
2018-07-21T19:08:00.176Z,24.09
2018-07-21T19:13:33.052Z,23.40
2018-07-21T19:16:16.804Z,23.23
2018-07-21T19:18:45.191Z,23.32
2018-07-21T19:21:20.840Z,23.14
2018-07-21T19:23:50.146Z,23.20
2018-07-21T19:26:28.098Z,22.47
2018-07-21T19:28:57.128Z,23.24
2018-07-21T19:31:25.431Z,23.26
2018-07-21T19:33:53.719Z,23.06
2018-07-21T19:36:22.163Z,22.83
2018-07-21T19:38:51.096Z,22.78
2018-07-21T19:41:24.880Z,23.19
2018-07-21T19:43:56.525Z,23.60
2018-07-21T19:46:24.919Z,23.96
2018-07-21T19:48:53.381Z,24.22
2018-07-21T19:51:21.706Z,24.53
2018-07-21T19:53:50.004Z,24.70
2018-07-21T19:56:18.360Z,24.86
2018-07-21T19:58:47.723Z,24.81
2018-07-21T20:01:16.184Z,24.92
2018-07-21T20:03:44.521Z,25.03
2018-07-21T20:06:12.884Z,25.03
2018-07-21T20:08:41.391Z,25.10
2018-07-21T20:11:11.187Z,25.00
2018-07-21T20:13:41.955Z,24.98
2018-07-21T20:16:10.257Z,24.70
2018-07-21T20:18:38.612Z,24.26
2018-07-21T20:21:07.273Z,23.84
2018-07-21T20:23:35.998Z,23.89
2018-07-21T20:26:04.385Z,23.89
2018-07-21T20:28:32.702Z,23.87
2018-07-21T20:31:00.964Z,23.76
2018-07-21T20:33:29.490Z,23.83
2018-07-21T20:36:02.941Z,24.00
2018-07-21T20:38:31.601Z,24.15
2018-07-21T20:41:00.083Z,24.33
2018-07-21T20:43:28.500Z,24.31
2018-07-21T20:45:56.799Z,24.33
2018-07-21T20:48:25.326Z,24.34
2018-07-21T20:50:53.759Z,24.36
2018-07-21T20:53:22.424Z,24.38
2018-07-21T20:55:51.563Z,24.12
2018-07-21T20:58:19.954Z,24.26
2018-07-21T21:00:48.441Z,24.37
2018-07-21T21:03:18.848Z,24.39
2018-07-21T21:06:08.672Z,24.52
2018-07-21T21:08:44.017Z,24.65
2018-07-21T21:11:14.619Z,24.55
2018-07-21T21:13:44.260Z,24.51
2018-07-21T21:16:12.568Z,24.56
2018-07-21T21:18:40.981Z,24.64
2018-07-21T21:21:09.429Z,24.33
2018-07-21T21:23:37.897Z,24.31
2018-07-21T21:26:07.277Z,24.44
2018-07-21T21:28:36.549Z,24.67
2018-07-21T21:31:04.904Z,24.67
2018-07-21T21:33:33.249Z,24.75
2018-07-21T21:36:01.678Z,24.81
2018-07-21T21:38:31.886Z,24.89
2018-07-21T21:41:01.885Z,24.85
2018-07-21T21:43:31.951Z,24.75
2018-07-21T21:46:01.527Z,24.88
2018-07-21T21:48:30.955Z,24.83
2018-07-21T21:50:59.905Z,24.78
2018-07-21T21:53:29.305Z,24.74
2018-07-21T21:55:58.281Z,24.79
2018-07-21T21:58:27.776Z,24.78
2018-07-21T22:01:08.836Z,24.85
2018-07-21T22:03:37.186Z,24.84
2018-07-21T22:06:05.997Z,24.86
2018-07-21T22:08:34.706Z,24.84
2018-07-21T22:11:04.426Z,24.76
2018-07-21T22:13:32.795Z,24.72
2018-07-21T22:16:01.587Z,24.68
2018-07-21T22:18:31.199Z,24.72
2018-07-21T22:20:59.456Z,24.61
2018-07-21T22:23:27.843Z,24.65
2018-07-21T22:25:56.602Z,24.70
2018-07-21T22:28:25.180Z,24.77
2018-07-21T22:30:53.493Z,24.60
2018-07-21T22:33:23.024Z,24.68
2018-07-21T22:35:51.412Z,24.73
2018-07-21T22:38:19.964Z,24.92
2018-07-21T22:40:48.350Z,25.07
2018-07-21T22:43:17.057Z,25.10
2018-07-21T22:45:46.196Z,25.09
2018-07-21T22:48:15.150Z,24.97
2018-07-21T22:50:43.834Z,24.77
2018-07-21T22:53:12.112Z,24.89
2018-07-21T22:55:40.379Z,24.70
2018-07-21T22:58:11.245Z,24.51
2018-07-21T23:00:39.802Z,24.81
2018-07-21T23:03:09.148Z,24.98
2018-07-21T23:05:41.153Z,25.04
2018-07-21T23:08:09.587Z,24.96
2018-07-21T23:10:38.572Z,24.96
2018-07-21T23:13:07.811Z,24.95
2018-07-21T23:15:36.206Z,24.89
2018-07-21T23:18:04.708Z,24.94
2018-07-21T23:20:33.056Z,24.83
2018-07-21T23:23:01.781Z,24.78
2018-07-21T23:25:30.058Z,24.74
2018-07-21T23:27:58.376Z,24.84
2018-07-21T23:30:26.776Z,24.81
2018-07-21T23:32:55.198Z,24.88
2018-07-21T23:35:23.917Z,24.94
2018-07-21T23:37:52.208Z,24.64
2018-07-21T23:40:20.524Z,24.63
2018-07-21T23:42:48.940Z,24.33
2018-07-21T23:45:17.415Z,24.34
2018-07-21T23:47:45.740Z,24.30
2018-07-21T23:50:14.108Z,23.81
2018-07-21T23:52:42.821Z,23.79
2018-07-21T23:55:11.357Z,23.85
2018-07-21T23:57:39.680Z,23.98
